sensor_id;sensor_type;location;lat;lon;timestamp;temperature;humidity
68177;DHT22;56478;50.982;7.032;2024-02-14T00:01:17;9.98;72.78
68177;DHT22;56478;50.982;7.032;2024-02-14T00:03:44;10.04;72.44
68177;DHT22;56478;50.982;7.032;2024-02-14T00:06:09;10.04;72.34
68177;DHT22;56478;50.982;7.032;2024-02-14T00:08:37;10.06;72.37
68177;DHT22;56478;50.982;7.032;2024-02-14T00:11:03;10.14;71.66
68177;DHT22;56478;50.982;7.032;2024-02-14T00:13:28;10.16;71.58
68177;DHT22;56478;50.982;7.032;2024-02-14T00:15:54;10.18;71.53
68177;DHT22;56478;50.982;7.032;2024-02-14T00:18:22;10.09;72.00
68177;DHT22;56478;50.982;7.032;2024-02-14T00:20:48;10.11;72.34
68177;DHT22;56478;50.982;7.032;2024-02-14T00:23:14;10.14;72.31
68177;DHT22;56478;50.982;7.032;2024-02-14T00:25:39;10.23;71.40
68177;DHT22;56478;50.982;7.032;2024-02-14T00:28:05;10.18;71.78
68177;DHT22;56478;50.982;7.032;2024-02-14T00:30:31;10.19;71.47
68177;DHT22;56478;50.982;7.032;2024-02-14T00:32:56;10.19;71.88
68177;DHT22;56478;50.982;7.032;2024-02-14T00:35:22;10.18;71.98
68177;DHT22;56478;50.982;7.032;2024-02-14T00:37:48;10.22;71.41
68177;DHT22;56478;50.982;7.032;2024-02-14T00:40:14;10.18;72.18
68177;DHT22;56478;50.982;7.032;2024-02-14T00:42:40;10.28;72.11
68177;DHT22;56478;50.982;7.032;2024-02-14T00:45:06;10.28;72.33
68177;DHT22;56478;50.982;7.032;2024-02-14T00:47:35;10.28;72.45
68177;DHT22;56478;50.982;7.032;2024-02-14T00:50:02;10.28;72.50
68177;DHT22;56478;50.982;7.032;2024-02-14T00:52:28;10.28;72.70
68177;DHT22;56478;50.982;7.032;2024-02-14T00:54:54;10.22;73.22
68177;DHT22;56478;50.982;7.032;2024-02-14T00:57:20;10.19;73.77
68177;DHT22;56478;50.982;7.032;2024-02-14T00:59:45;10.23;73.42
68177;DHT22;56478;50.982;7.032;2024-02-14T01:02:11;10.22;73.66
68177;DHT22;56478;50.982;7.032;2024-02-14T01:04:37;10.28;73.70
68177;DHT22;56478;50.982;7.032;2024-02-14T01:07:03;10.22;73.37
68177;DHT22;56478;50.982;7.032;2024-02-14T01:09:29;10.31;73.18
68177;DHT22;56478;50.982;7.032;2024-02-14T01:11:54;10.29;73.49
68177;DHT22;56478;50.982;7.032;2024-02-14T01:14:21;10.32;73.36
68177;DHT22;56478;50.982;7.032;2024-02-14T01:16:47;10.36;73.22
68177;DHT22;56478;50.982;7.032;2024-02-14T01:19:13;10.35;73.52
68177;DHT22;56478;50.982;7.032;2024-02-14T01:21:39;10.39;73.36
68177;DHT22;56478;50.982;7.032;2024-02-14T01:24:05;10.40;73.11
68177;DHT22;56478;50.982;7.032;2024-02-14T01:26:31;10.40;73.07
68177;DHT22;56478;50.982;7.032;2024-02-14T01:29:00;10.32;73.73
68177;DHT22;56478;50.982;7.032;2024-02-14T01:31:26;10.32;73.77
68177;DHT22;56478;50.982;7.032;2024-02-14T01:33:53;10.31;73.66
68177;DHT22;56478;50.982;7.032;2024-02-14T01:36:18;10.35;73.71
68177;DHT22;56478;50.982;7.032;2024-02-14T01:38:44;10.38;73.68
68177;DHT22;56478;50.982;7.032;2024-02-14T01:41:10;10.46;73.37
68177;DHT22;56478;50.982;7.032;2024-02-14T01:43:36;10.53;73.21
68177;DHT22;56478;50.982;7.032;2024-02-14T01:46:06;10.52;73.45
68177;DHT22;56478;50.982;7.032;2024-02-14T01:48:34;10.57;73.11
68177;DHT22;56478;50.982;7.032;2024-02-14T01:51:00;10.49;73.39
68177;DHT22;56478;50.982;7.032;2024-02-14T01:53:27;10.53;73.22
68177;DHT22;56478;50.982;7.032;2024-02-14T01:55:56;10.43;74.16
68177;DHT22;56478;50.982;7.032;2024-02-14T01:58:22;10.40;74.08
68177;DHT22;56478;50.982;7.032;2024-02-14T02:00:48;10.46;73.92
68177;DHT22;56478;50.982;7.032;2024-02-14T02:03:14;10.45;73.80
68177;DHT22;56478;50.982;7.032;2024-02-14T02:05:41;10.50;73.78
68177;DHT22;56478;50.982;7.032;2024-02-14T02:08:09;10.50;74.07
68177;DHT22;56478;50.982;7.032;2024-02-14T02:10:35;10.52;74.22
68177;DHT22;56478;50.982;7.032;2024-02-14T02:13:01;10.45;74.39
68177;DHT22;56478;50.982;7.032;2024-02-14T02:15:26;10.57;73.82
68177;DHT22;56478;50.982;7.032;2024-02-14T02:17:54;10.60;73.93
68177;DHT22;56478;50.982;7.032;2024-02-14T02:20:20;10.59;73.94
68177;DHT22;56478;50.982;7.032;2024-02-14T02:22:49;10.48;74.65
68177;DHT22;56478;50.982;7.032;2024-02-14T02:25:15;10.39;75.17
68177;DHT22;56478;50.982;7.032;2024-02-14T02:27:40;10.57;74.35
68177;DHT22;56478;50.982;7.032;2024-02-14T02:30:06;10.55;74.76
68177;DHT22;56478;50.982;7.032;2024-02-14T02:32:34;10.55;74.93
68177;DHT22;56478;50.982;7.032;2024-02-14T02:34:59;10.55;74.54
68177;DHT22;56478;50.982;7.032;2024-02-14T02:37:26;10.57;74.92
68177;DHT22;56478;50.982;7.032;2024-02-14T02:39:56;10.59;74.69
68177;DHT22;56478;50.982;7.032;2024-02-14T02:42:22;10.56;74.99
68177;DHT22;56478;50.982;7.032;2024-02-14T02:44:50;10.56;74.92
68177;DHT22;56478;50.982;7.032;2024-02-14T02:47:15;10.66;74.58
68177;DHT22;56478;50.982;7.032;2024-02-14T02:49:43;10.63;74.88
68177;DHT22;56478;50.982;7.032;2024-02-14T02:52:10;10.60;75.09
68177;DHT22;56478;50.982;7.032;2024-02-14T02:54:36;10.67;74.96
68177;DHT22;56478;50.982;7.032;2024-02-14T02:57:01;10.63;75.26
68177;DHT22;56478;50.982;7.032;2024-02-14T02:59:29;10.70;74.89
68177;DHT22;56478;50.982;7.032;2024-02-14T03:01:55;10.68;74.94
68177;DHT22;56478;50.982;7.032;2024-02-14T03:04:21;10.60;75.61
68177;DHT22;56478;50.982;7.032;2024-02-14T03:06:46;10.61;75.50
68177;DHT22;56478;50.982;7.032;2024-02-14T03:09:12;10.60;75.55
68177;DHT22;56478;50.982;7.032;2024-02-14T03:11:39;10.60;75.61
68177;DHT22;56478;50.982;7.032;2024-02-14T03:14:05;10.64;75.48
68177;DHT22;56478;50.982;7.032;2024-02-14T03:16:31;10.66;75.53
68177;DHT22;56478;50.982;7.032;2024-02-14T03:18:57;10.70;75.47
68177;DHT22;56478;50.982;7.032;2024-02-14T03:21:24;10.60;75.95
68177;DHT22;56478;50.982;7.032;2024-02-14T03:23:49;10.63;75.95
68177;DHT22;56478;50.982;7.032;2024-02-14T03:26:15;10.67;75.75
68177;DHT22;56478;50.982;7.032;2024-02-14T03:28:40;10.68;75.90
68177;DHT22;56478;50.982;7.032;2024-02-14T03:31:06;10.61;76.17
68177;DHT22;56478;50.982;7.032;2024-02-14T03:33:31;10.59;76.35
68177;DHT22;56478;50.982;7.032;2024-02-14T03:35:57;10.52;76.91
68177;DHT22;56478;50.982;7.032;2024-02-14T03:38:29;10.63;76.17
68177;DHT22;56478;50.982;7.032;2024-02-14T03:40:56;10.64;76.21
68177;DHT22;56478;50.982;7.032;2024-02-14T03:43:22;10.60;76.49
68177;DHT22;56478;50.982;7.032;2024-02-14T03:45:49;10.60;76.54
68177;DHT22;56478;50.982;7.032;2024-02-14T03:48:17;10.52;76.90
68177;DHT22;56478;50.982;7.032;2024-02-14T03:50:42;10.56;76.89
68177;DHT22;56478;50.982;7.032;2024-02-14T03:53:08;10.53;76.86
68177;DHT22;56478;50.982;7.032;2024-02-14T03:55:37;10.49;77.26
68177;DHT22;56478;50.982;7.032;2024-02-14T03:58:03;10.50;77.27
68177;DHT22;56478;50.982;7.032;2024-02-14T04:00:30;10.61;77.07
68177;DHT22;56478;50.982;7.032;2024-02-14T04:02:56;10.59;77.51
68177;DHT22;56478;50.982;7.032;2024-02-14T04:05:25;10.53;77.76
68177;DHT22;56478;50.982;7.032;2024-02-14T04:07:53;10.53;78.15
68177;DHT22;56478;50.982;7.032;2024-02-14T04:10:20;10.61;77.71
68177;DHT22;56478;50.982;7.032;2024-02-14T04:12:46;10.53;77.89
68177;DHT22;56478;50.982;7.032;2024-02-14T04:15:12;10.59;78.17
68177;DHT22;56478;50.982;7.032;2024-02-14T04:17:39;10.53;78.08
68177;DHT22;56478;50.982;7.032;2024-02-14T04:20:04;10.60;77.82
68177;DHT22;56478;50.982;7.032;2024-02-14T04:22:30;10.66;77.67
68177;DHT22;56478;50.982;7.032;2024-02-14T04:24:56;10.68;77.30
68177;DHT22;56478;50.982;7.032;2024-02-14T04:27:22;10.68;77.36
68177;DHT22;56478;50.982;7.032;2024-02-14T04:29:48;10.66;77.29
68177;DHT22;56478;50.982;7.032;2024-02-14T04:32:14;10.67;77.11
68177;DHT22;56478;50.982;7.032;2024-02-14T04:34:40;10.68;77.05
68177;DHT22;56478;50.982;7.032;2024-02-14T04:37:07;10.61;77.36
68177;DHT22;56478;50.982;7.032;2024-02-14T04:39:38;10.60;77.52
68177;DHT22;56478;50.982;7.032;2024-02-14T04:42:04;10.59;77.33
68177;DHT22;56478;50.982;7.032;2024-02-14T04:44:33;10.52;77.63
68177;DHT22;56478;50.982;7.032;2024-02-14T04:46:59;10.53;77.65
68177;DHT22;56478;50.982;7.032;2024-02-14T04:49:25;10.57;77.61
68177;DHT22;56478;50.982;7.032;2024-02-14T04:51:52;10.63;77.60
68177;DHT22;56478;50.982;7.032;2024-02-14T04:54:18;10.63;77.51
68177;DHT22;56478;50.982;7.032;2024-02-14T04:56:44;10.57;77.78
68177;DHT22;56478;50.982;7.032;2024-02-14T04:59:11;10.71;77.35
68177;DHT22;56478;50.982;7.032;2024-02-14T05:01:36;10.61;77.66
68177;DHT22;56478;50.982;7.032;2024-02-14T05:04:02;10.67;77.65
68177;DHT22;56478;50.982;7.032;2024-02-14T05:06:28;10.61;77.75
68177;DHT22;56478;50.982;7.032;2024-02-14T05:08:54;10.67;77.50
68177;DHT22;56478;50.982;7.032;2024-02-14T05:11:19;10.63;77.70
68177;DHT22;56478;50.982;7.032;2024-02-14T05:13:45;10.64;77.70
68177;DHT22;56478;50.982;7.032;2024-02-14T05:16:12;10.63;77.80
68177;DHT22;56478;50.982;7.032;2024-02-14T05:18:38;10.64;77.94
68177;DHT22;56478;50.982;7.032;2024-02-14T05:21:07;10.64;77.87
68177;DHT22;56478;50.982;7.032;2024-02-14T05:23:34;10.70;77.60
68177;DHT22;56478;50.982;7.032;2024-02-14T05:26:00;10.73;77.47
68177;DHT22;56478;50.982;7.032;2024-02-14T05:28:28;10.67;77.78
68177;DHT22;56478;50.982;7.032;2024-02-14T05:30:54;10.80;77.27
68177;DHT22;56478;50.982;7.032;2024-02-14T05:33:20;10.76;77.38
68177;DHT22;56478;50.982;7.032;2024-02-14T05:35:50;10.71;77.57
68177;DHT22;56478;50.982;7.032;2024-02-14T05:38:16;10.68;77.66
68177;DHT22;56478;50.982;7.032;2024-02-14T05:40:45;10.78;77.48
68177;DHT22;56478;50.982;7.032;2024-02-14T05:43:11;10.73;77.72
68177;DHT22;56478;50.982;7.032;2024-02-14T05:45:37;10.77;77.72
68177;DHT22;56478;50.982;7.032;2024-02-14T05:48:02;10.83;77.60
68177;DHT22;56478;50.982;7.032;2024-02-14T05:50:28;10.76;78.56
68177;DHT22;56478;50.982;7.032;2024-02-14T05:52:54;10.76;78.45
68177;DHT22;56478;50.982;7.032;2024-02-14T05:55:22;10.76;79.07
68177;DHT22;56478;50.982;7.032;2024-02-14T05:57:48;10.70;79.26
68177;DHT22;56478;50.982;7.032;2024-02-14T06:00:14;10.76;78.74
68177;DHT22;56478;50.982;7.032;2024-02-14T06:02:40;10.81;78.47
68177;DHT22;56478;50.982;7.032;2024-02-14T06:05:06;10.66;79.15
68177;DHT22;56478;50.982;7.032;2024-02-14T06:07:37;10.63;79.84
68177;DHT22;56478;50.982;7.032;2024-02-14T06:10:03;10.68;80.05
68177;DHT22;56478;50.982;7.032;2024-02-14T06:12:29;10.63;80.70
68177;DHT22;56478;50.982;7.032;2024-02-14T06:14:55;10.60;81.70
68177;DHT22;56478;50.982;7.032;2024-02-14T06:17:21;10.57;81.73
68177;DHT22;56478;50.982;7.032;2024-02-14T06:19:46;10.60;81.87
68177;DHT22;56478;50.982;7.032;2024-02-14T06:22:12;10.61;82.22
68177;DHT22;56478;50.982;7.032;2024-02-14T06:24:38;10.60;82.22
68177;DHT22;56478;50.982;7.032;2024-02-14T06:27:04;10.60;82.42
68177;DHT22;56478;50.982;7.032;2024-02-14T06:29:29;10.57;82.89
68177;DHT22;56478;50.982;7.032;2024-02-14T06:31:55;10.50;83.12
68177;DHT22;56478;50.982;7.032;2024-02-14T06:34:21;10.61;82.66
68177;DHT22;56478;50.982;7.032;2024-02-14T06:36:47;10.61;82.61
68177;DHT22;56478;50.982;7.032;2024-02-14T06:39:12;10.61;82.44
68177;DHT22;56478;50.982;7.032;2024-02-14T06:41:38;10.55;82.74
68177;DHT22;56478;50.982;7.032;2024-02-14T06:44:06;10.66;82.43
68177;DHT22;56478;50.982;7.032;2024-02-14T06:46:33;10.59;82.27
68177;DHT22;56478;50.982;7.032;2024-02-14T06:48:58;10.66;82.32
68177;DHT22;56478;50.982;7.032;2024-02-14T06:51:24;10.66;82.04
68177;DHT22;56478;50.982;7.032;2024-02-14T06:53:50;10.67;81.85
68177;DHT22;56478;50.982;7.032;2024-02-14T06:56:16;10.73;81.76
68177;DHT22;56478;50.982;7.032;2024-02-14T06:58:42;10.81;81.20
68177;DHT22;56478;50.982;7.032;2024-02-14T07:01:07;10.84;81.31
68177;DHT22;56478;50.982;7.032;2024-02-14T07:03:33;10.84;81.17
68177;DHT22;56478;50.982;7.032;2024-02-14T07:05:59;10.84;81.29
68177;DHT22;56478;50.982;7.032;2024-02-14T07:08:24;10.85;80.86
68177;DHT22;56478;50.982;7.032;2024-02-14T07:10:54;11.00;80.66
68177;DHT22;56478;50.982;7.032;2024-02-14T07:13:19;11.04;80.20
68177;DHT22;56478;50.982;7.032;2024-02-14T07:15:45;10.98;80.25
68177;DHT22;56478;50.982;7.032;2024-02-14T07:18:11;11.15;80.41
68177;DHT22;56478;50.982;7.032;2024-02-14T07:20:36;11.53;79.73
68177;DHT22;56478;50.982;7.032;2024-02-14T07:23:02;11.33;79.22
68177;DHT22;56478;50.982;7.032;2024-02-14T07:25:28;11.30;78.73
68177;DHT22;56478;50.982;7.032;2024-02-14T07:27:53;11.28;78.42
68177;DHT22;56478;50.982;7.032;2024-02-14T07:30:19;11.22;78.78
68177;DHT22;56478;50.982;7.032;2024-02-14T07:32:45;11.22;79.21
68177;DHT22;56478;50.982;7.032;2024-02-14T07:35:11;11.32;78.79
68177;DHT22;56478;50.982;7.032;2024-02-14T07:37:39;11.15;79.70
68177;DHT22;56478;50.982;7.032;2024-02-14T07:40:05;11.07;79.49
68177;DHT22;56478;50.982;7.032;2024-02-14T07:42:31;11.11;79.53
68177;DHT22;56478;50.982;7.032;2024-02-14T07:44:57;11.12;79.54
68177;DHT22;56478;50.982;7.032;2024-02-14T07:47:22;11.15;79.22
68177;DHT22;56478;50.982;7.032;2024-02-14T07:49:48;11.30;78.79
68177;DHT22;56478;50.982;7.032;2024-02-14T07:52:13;11.19;79.10
68177;DHT22;56478;50.982;7.032;2024-02-14T07:54:39;11.23;79.05
68177;DHT22;56478;50.982;7.032;2024-02-14T07:57:04;11.32;78.68
68177;DHT22;56478;50.982;7.032;2024-02-14T07:59:30;11.28;79.15
68177;DHT22;56478;50.982;7.032;2024-02-14T08:01:56;11.29;78.88
68177;DHT22;56478;50.982;7.032;2024-02-14T08:04:23;11.37;78.36
68177;DHT22;56478;50.982;7.032;2024-02-14T08:06:49;11.42;78.95
68177;DHT22;56478;50.982;7.032;2024-02-14T08:09:14;11.39;78.70
68177;DHT22;56478;50.982;7.032;2024-02-14T08:11:40;11.63;77.77
68177;DHT22;56478;50.982;7.032;2024-02-14T08:14:06;11.66;77.56
68177;DHT22;56478;50.982;7.032;2024-02-14T08:16:31;11.85;77.11
68177;DHT22;56478;50.982;7.032;2024-02-14T08:18:57;11.82;77.06
68177;DHT22;56478;50.982;7.032;2024-02-14T08:21:27;11.95;76.63
68177;DHT22;56478;50.982;7.032;2024-02-14T08:23:54;11.91;77.05
68177;DHT22;56478;50.982;7.032;2024-02-14T08:26:21;11.92;77.63
68177;DHT22;56478;50.982;7.032;2024-02-14T08:28:48;12.04;76.93
68177;DHT22;56478;50.982;7.032;2024-02-14T08:31:14;11.85;76.97
68177;DHT22;56478;50.982;7.032;2024-02-14T08:33:39;11.89;77.43
68177;DHT22;56478;50.982;7.032;2024-02-14T08:36:05;12.02;76.50
68177;DHT22;56478;50.982;7.032;2024-02-14T08:38:32;12.01;76.98
68177;DHT22;56478;50.982;7.032;2024-02-14T08:40:57;12.02;76.84
68177;DHT22;56478;50.982;7.032;2024-02-14T08:43:23;12.04;76.70
68177;DHT22;56478;50.982;7.032;2024-02-14T08:45:51;12.34;75.78
68177;DHT22;56478;50.982;7.032;2024-02-14T08:48:17;12.32;75.73
68177;DHT22;56478;50.982;7.032;2024-02-14T08:50:43;12.40;75.91
68177;DHT22;56478;50.982;7.032;2024-02-14T08:53:09;12.37;76.06
68177;DHT22;56478;50.982;7.032;2024-02-14T08:55:35;12.39;75.78
68177;DHT22;56478;50.982;7.032;2024-02-14T08:58:01;12.36;75.86
68177;DHT22;56478;50.982;7.032;2024-02-14T09:00:27;12.33;76.11
68177;DHT22;56478;50.982;7.032;2024-02-14T09:02:52;12.34;76.58
68177;DHT22;56478;50.982;7.032;2024-02-14T09:05:18;12.51;75.62
68177;DHT22;56478;50.982;7.032;2024-02-14T09:07:44;12.46;75.80
68177;DHT22;56478;50.982;7.032;2024-02-14T09:10:10;12.65;75.55
68177;DHT22;56478;50.982;7.032;2024-02-14T09:12:38;12.91;74.63
68177;DHT22;56478;50.982;7.032;2024-02-14T09:15:05;12.75;75.09
68177;DHT22;56478;50.982;7.032;2024-02-14T09:17:30;12.84;75.22
68177;DHT22;56478;50.982;7.032;2024-02-14T09:19:56;13.32;73.66
68177;DHT22;56478;50.982;7.032;2024-02-14T09:22:22;14.13;71.39
68177;DHT22;56478;50.982;7.032;2024-02-14T09:24:48;14.16;70.95
68177;DHT22;56478;50.982;7.032;2024-02-14T09:27:14;14.38;70.44
68177;DHT22;56478;50.982;7.032;2024-02-14T09:29:39;14.26;70.14
68177;DHT22;56478;50.982;7.032;2024-02-14T09:32:05;14.17;70.38
68177;DHT22;56478;50.982;7.032;2024-02-14T09:34:31;14.08;70.92
68177;DHT22;56478;50.982;7.032;2024-02-14T09:36:56;14.15;70.35
68177;DHT22;56478;50.982;7.032;2024-02-14T09:39:24;14.09;70.83
68177;DHT22;56478;50.982;7.032;2024-02-14T09:41:57;14.26;70.14
68177;DHT22;56478;50.982;7.032;2024-02-14T09:44:27;14.17;70.78
68177;DHT22;56478;50.982;7.032;2024-02-14T09:46:55;14.25;70.55
68177;DHT22;56478;50.982;7.032;2024-02-14T09:49:21;14.04;71.27
68177;DHT22;56478;50.982;7.032;2024-02-14T09:51:48;13.88;71.57
68177;DHT22;56478;50.982;7.032;2024-02-14T09:54:16;13.98;71.58
68177;DHT22;56478;50.982;7.032;2024-02-14T09:56:45;13.89;72.14
68177;DHT22;56478;50.982;7.032;2024-02-14T09:59:13;13.68;72.52
68177;DHT22;56478;50.982;7.032;2024-02-14T10:01:39;13.72;73.03
68177;DHT22;56478;50.982;7.032;2024-02-14T10:04:05;13.63;73.06
68177;DHT22;56478;50.982;7.032;2024-02-14T10:06:31;13.64;73.12
68177;DHT22;56478;50.982;7.032;2024-02-14T10:08:58;13.64;72.87
68177;DHT22;56478;50.982;7.032;2024-02-14T10:11:24;13.85;72.09
68177;DHT22;56478;50.982;7.032;2024-02-14T10:13:52;13.70;72.61
68177;DHT22;56478;50.982;7.032;2024-02-14T10:16:19;13.70;72.15
68177;DHT22;56478;50.982;7.032;2024-02-14T10:18:46;13.65;72.76
68177;DHT22;56478;50.982;7.032;2024-02-14T10:21:16;13.63;73.44
68177;DHT22;56478;50.982;7.032;2024-02-14T10:23:43;13.61;73.07
68177;DHT22;56478;50.982;7.032;2024-02-14T10:26:10;13.47;73.01
68177;DHT22;56478;50.982;7.032;2024-02-14T10:28:36;13.40;73.69
68177;DHT22;56478;50.982;7.032;2024-02-14T10:31:02;13.42;74.07
68177;DHT22;56478;50.982;7.032;2024-02-14T10:33:28;13.53;74.91
68177;DHT22;56478;50.982;7.032;2024-02-14T10:35:54;13.53;74.99
68177;DHT22;56478;50.982;7.032;2024-02-14T10:38:22;13.48;74.90
68177;DHT22;56478;50.982;7.032;2024-02-14T10:40:48;13.55;74.41
68177;DHT22;56478;50.982;7.032;2024-02-14T10:43:14;13.43;74.84
68177;DHT22;56478;50.982;7.032;2024-02-14T10:45:40;13.67;73.31
68177;DHT22;56478;50.982;7.032;2024-02-14T10:48:12;14.02;72.54
68177;DHT22;56478;50.982;7.032;2024-02-14T10:50:40;14.54;71.38
68177;DHT22;56478;50.982;7.032;2024-02-14T10:53:11;14.96;69.87
68177;DHT22;56478;50.982;7.032;2024-02-14T10:55:40;15.14;69.20
68177;DHT22;56478;50.982;7.032;2024-02-14T10:58:07;15.00;69.07
68177;DHT22;56478;50.982;7.032;2024-02-14T11:00:33;14.85;69.94
68177;DHT22;56478;50.982;7.032;2024-02-14T11:02:59;15.16;69.81
68177;DHT22;56478;50.982;7.032;2024-02-14T11:05:26;15.00;69.15
68177;DHT22;56478;50.982;7.032;2024-02-14T11:07:51;14.77;69.71
68177;DHT22;56478;50.982;7.032;2024-02-14T11:10:21;14.69;70.37
68177;DHT22;56478;50.982;7.032;2024-02-14T11:12:48;14.81;69.95
68177;DHT22;56478;50.982;7.032;2024-02-14T11:15:23;14.78;70.62
68177;DHT22;56478;50.982;7.032;2024-02-14T11:18:04;15.10;69.96
68177;DHT22;56478;50.982;7.032;2024-02-14T11:20:35;14.92;70.24
68177;DHT22;56478;50.982;7.032;2024-02-14T11:23:05;14.89;70.77
68177;DHT22;56478;50.982;7.032;2024-02-14T11:25:32;14.72;71.36
68177;DHT22;56478;50.982;7.032;2024-02-14T11:27:59;14.51;73.42
68177;DHT22;56478;50.982;7.032;2024-02-14T11:30:33;14.33;75.85
68177;DHT22;56478;50.982;7.032;2024-02-14T11:33:16;14.27;75.81
68177;DHT22;56478;50.982;7.032;2024-02-14T11:35:50;14.48;76.30
68177;DHT22;56478;50.982;7.032;2024-02-14T11:38:21;14.40;74.54
68177;DHT22;56478;50.982;7.032;2024-02-14T11:40:47;14.40;74.04
68177;DHT22;56478;50.982;7.032;2024-02-14T11:43:16;14.47;72.74
68177;DHT22;56478;50.982;7.032;2024-02-14T11:45:45;14.45;72.81
68177;DHT22;56478;50.982;7.032;2024-02-14T11:48:16;14.48;72.97
68177;DHT22;56478;50.982;7.032;2024-02-14T11:50:44;14.45;72.33
68177;DHT22;56478;50.982;7.032;2024-02-14T11:53:11;14.54;71.74
68177;DHT22;56478;50.982;7.032;2024-02-14T11:55:38;14.65;71.42
68177;DHT22;56478;50.982;7.032;2024-02-14T11:58:08;14.77;70.60
68177;DHT22;56478;50.982;7.032;2024-02-14T12:00:37;14.56;71.33
68177;DHT22;56478;50.982;7.032;2024-02-14T12:03:06;14.67;70.64
68177;DHT22;56478;50.982;7.032;2024-02-14T12:05:33;14.57;71.15
68177;DHT22;56478;50.982;7.032;2024-02-14T12:07:59;14.52;71.33
68177;DHT22;56478;50.982;7.032;2024-02-14T12:10:26;14.58;71.11
68177;DHT22;56478;50.982;7.032;2024-02-14T12:12:53;14.38;72.16
68177;DHT22;56478;50.982;7.032;2024-02-14T12:15:20;14.26;72.53
68177;DHT22;56478;50.982;7.032;2024-02-14T12:17:47;14.10;73.28
68177;DHT22;56478;50.982;7.032;2024-02-14T12:20:14;14.08;73.75
68177;DHT22;56478;50.982;7.032;2024-02-14T12:22:40;14.01;73.34
68177;DHT22;56478;50.982;7.032;2024-02-14T12:25:08;13.97;73.88
68177;DHT22;56478;50.982;7.032;2024-02-14T12:27:36;13.88;74.11
68177;DHT22;56478;50.982;7.032;2024-02-14T12:30:08;13.92;74.11
68177;DHT22;56478;50.982;7.032;2024-02-14T12:32:35;13.91;74.54
68177;DHT22;56478;50.982;7.032;2024-02-14T12:35:00;13.88;74.78
68177;DHT22;56478;50.982;7.032;2024-02-14T12:37:26;13.68;76.08
68177;DHT22;56478;50.982;7.032;2024-02-14T12:39:52;13.65;76.31
68177;DHT22;56478;50.982;7.032;2024-02-14T12:42:19;13.57;76.12
68177;DHT22;56478;50.982;7.032;2024-02-14T12:44:51;13.71;75.61
68177;DHT22;56478;50.982;7.032;2024-02-14T12:47:17;13.81;75.37
68177;DHT22;56478;50.982;7.032;2024-02-14T12:49:43;13.91;74.78
68177;DHT22;56478;50.982;7.032;2024-02-14T12:52:08;14.05;74.32
68177;DHT22;56478;50.982;7.032;2024-02-14T12:54:34;14.06;73.82
68177;DHT22;56478;50.982;7.032;2024-02-14T12:57:01;14.10;73.56
68177;DHT22;56478;50.982;7.032;2024-02-14T12:59:26;14.10;73.31
68177;DHT22;56478;50.982;7.032;2024-02-14T13:01:52;14.13;73.43
68177;DHT22;56478;50.982;7.032;2024-02-14T13:04:17;14.25;73.33
68177;DHT22;56478;50.982;7.032;2024-02-14T13:06:43;14.40;72.76
68177;DHT22;56478;50.982;7.032;2024-02-14T13:09:08;14.41;72.52
68177;DHT22;56478;50.982;7.032;2024-02-14T13:11:34;14.20;73.43
68177;DHT22;56478;50.982;7.032;2024-02-14T13:14:00;14.29;73.25
68177;DHT22;56478;50.982;7.032;2024-02-14T13:16:25;14.33;73.03
68177;DHT22;56478;50.982;7.032;2024-02-14T13:18:51;14.23;73.46
68177;DHT22;56478;50.982;7.032;2024-02-14T13:21:18;14.27;73.45
68177;DHT22;56478;50.982;7.032;2024-02-14T13:23:43;14.32;73.48
68177;DHT22;56478;50.982;7.032;2024-02-14T13:26:09;14.32;73.20
68177;DHT22;56478;50.982;7.032;2024-02-14T13:28:35;14.32;73.35
68177;DHT22;56478;50.982;7.032;2024-02-14T13:31:00;14.17;74.03
68177;DHT22;56478;50.982;7.032;2024-02-14T13:33:26;14.23;74.17
68177;DHT22;56478;50.982;7.032;2024-02-14T13:35:52;14.19;74.21
68177;DHT22;56478;50.982;7.032;2024-02-14T13:38:18;14.12;74.19
68177;DHT22;56478;50.982;7.032;2024-02-14T13:40:43;14.10;74.47
68177;DHT22;56478;50.982;7.032;2024-02-14T13:43:09;14.06;75.25
68177;DHT22;56478;50.982;7.032;2024-02-14T13:45:43;14.15;75.25
68177;DHT22;56478;50.982;7.032;2024-02-14T13:48:09;14.05;75.72
68177;DHT22;56478;50.982;7.032;2024-02-14T13:50:36;14.05;75.94
68177;DHT22;56478;50.982;7.032;2024-02-14T13:53:02;14.15;75.25
68177;DHT22;56478;50.982;7.032;2024-02-14T13:55:28;14.05;76.46
68177;DHT22;56478;50.982;7.032;2024-02-14T13:57:54;14.01;76.72
68177;DHT22;56478;50.982;7.032;2024-02-14T14:00:19;13.95;77.17
68177;DHT22;56478;50.982;7.032;2024-02-14T14:02:45;13.88;78.04
68177;DHT22;56478;50.982;7.032;2024-02-14T14:05:11;13.77;79.18
68177;DHT22;56478;50.982;7.032;2024-02-14T14:07:38;13.79;79.26
68177;DHT22;56478;50.982;7.032;2024-02-14T14:10:05;13.72;80.06
68177;DHT22;56478;50.982;7.032;2024-02-14T14:12:32;13.68;80.69
68177;DHT22;56478;50.982;7.032;2024-02-14T14:15:01;13.50;82.20
68177;DHT22;56478;50.982;7.032;2024-02-14T14:17:32;13.46;83.42
68177;DHT22;56478;50.982;7.032;2024-02-14T14:19:57;13.40;84.54
68177;DHT22;56478;50.982;7.032;2024-02-14T14:22:23;13.37;83.96
68177;DHT22;56478;50.982;7.032;2024-02-14T14:24:48;13.37;84.88
68177;DHT22;56478;50.982;7.032;2024-02-14T14:27:14;13.39;83.80
68177;DHT22;56478;50.982;7.032;2024-02-14T14:29:40;13.32;84.38
68177;DHT22;56478;50.982;7.032;2024-02-14T14:32:09;13.27;85.11
68177;DHT22;56478;50.982;7.032;2024-02-14T14:34:35;13.26;84.96
68177;DHT22;56478;50.982;7.032;2024-02-14T14:37:02;13.18;86.36
68177;DHT22;56478;50.982;7.032;2024-02-14T14:39:28;13.12;86.89
68177;DHT22;56478;50.982;7.032;2024-02-14T14:41:53;13.05;87.40
68177;DHT22;56478;50.982;7.032;2024-02-14T14:44:24;12.98;88.00
68177;DHT22;56478;50.982;7.032;2024-02-14T14:46:50;13.03;87.59
68177;DHT22;56478;50.982;7.032;2024-02-14T14:49:16;12.83;88.55
68177;DHT22;56478;50.982;7.032;2024-02-14T14:51:42;12.64;90.00
68177;DHT22;56478;50.982;7.032;2024-02-14T14:54:08;12.68;89.56
68177;DHT22;56478;50.982;7.032;2024-02-14T14:56:33;12.68;89.91
68177;DHT22;56478;50.982;7.032;2024-02-14T14:58:59;12.65;90.45
68177;DHT22;56478;50.982;7.032;2024-02-14T15:01:31;12.63;90.13
68177;DHT22;56478;50.982;7.032;2024-02-14T15:03:59;12.58;90.54
68177;DHT22;56478;50.982;7.032;2024-02-14T15:06:25;12.67;90.36
68177;DHT22;56478;50.982;7.032;2024-02-14T15:08:50;12.61;90.62
68177;DHT22;56478;50.982;7.032;2024-02-14T15:11:16;12.57;90.90
68177;DHT22;56478;50.982;7.032;2024-02-14T15:13:43;12.49;90.90
68177;DHT22;56478;50.982;7.032;2024-02-14T15:16:10;12.47;90.99
68177;DHT22;56478;50.982;7.032;2024-02-14T15:18:35;12.50;90.82
68177;DHT22;56478;50.982;7.032;2024-02-14T15:21:01;12.43;90.91
68177;DHT22;56478;50.982;7.032;2024-02-14T15:23:28;12.44;90.86
68177;DHT22;56478;50.982;7.032;2024-02-14T15:25:54;12.47;90.55